Mammoth Cave, KY

11:05 AM CDT on September 04, 2015 (GMT -0500)
nolin lake | | Change Station
CLOSE
Current Station
Personal Weather Station
Location: Clarkson, KY
Elevation: 643 ft
Nearby Weather Stations

Elev 643 ft 37.35 °N, 86.13 °W | Updated 20 minutes ago

Clear
Clear
100.9 °F
Feels Like 109 °F
N
2.2
Wind Variable Wind from SSE

Today
High -- | Low -- °F
--% Chance of Precip.
Yesterday
High -- | Low -- °F
Precip. -- in
6:17 AM 7:09 PM
Waning Gibbous, 58% visible
Pressure 30.07 in
Visibility 10.0 miles
Clouds Clear
Heat Index 109 °F
Dew Point 70 °F
Humidity 37%
Rainfall in
Snow Depth Not available.
UV 8 out of 12
Pollen 10.50 out of 12
Air Quality Not available.
Flu Activity Not available.
METAR KGLW 041555Z AUTO 08003KT 10SM CLR 31/18 A3007 RMK AO2 T03100181
Pressure 30.07 in
Visibility 10.0 miles
Clouds Clear
Heat Index 109 °F
Dew Point 70 °F
Humidity 37%
Rainfall in
Snow Depth Not available.
UV 8 out of 12
Pollen 10.50 out of 12
Air Quality Not available.
Flu Activity Not available.
METAR KGLW 041555Z AUTO 08003KT 10SM CLR 31/18 A3007 RMK AO2 T03100181

10-Day Weather Forecast

×

Almanac

Astronomy

Sep. 04, 2015 Rise Set
Actual Time
Civil Twilight
Nautical Twilight
Astronomical Twilight
Moon
Length of Visible Light
Length of Day
Tomorrow will be .
, % of the Moon is Illuminated

Today's Extremes

State Highs State Lows

Community

WunderPhotos

Upload Photos

1,852,210 photos uploaded!

WunderBlogs® & News

Nearby

Air Quality

  Air Quality AQ Index Pollutant
Not available.

Snow Depth

Station Depth Elevation

Earthquake Activity

City Distance Mag. Time & Date
Minimum magnitude displayed is 2.5.

Coastal Water Temperatures

Place Temperature

Stations

Nearby Weather Stations

Station Location Temp. Windchill Dew Point Humidity Wind Precip. Elev Updated Type